sensor_id;sensor_type;location;lat;lon;timestamp;P1;durP1;ratioP1;P2;durP2;ratioP2
5127;SDS011;2582;48.770;9.190;2022-12-18T00:01:35;59.27;;;39.40;;
5127;SDS011;2582;48.770;9.190;2022-12-18T00:04:06;68.43;;;40.37;;
5127;SDS011;2582;48.770;9.190;2022-12-18T00:06:33;57.77;;;36.17;;
5127;SDS011;2582;48.770;9.190;2022-12-18T00:08:59;55.70;;;37.70;;
5127;SDS011;2582;48.770;9.190;2022-12-18T00:11:28;60.03;;;37.57;;
5127;SDS011;2582;48.770;9.190;2022-12-18T00:13:55;60.70;;;36.13;;
5127;SDS011;2582;48.770;9.190;2022-12-18T00:16:23;63.37;;;37.13;;
5127;SDS011;2582;48.770;9.190;2022-12-18T00:18:50;58.20;;;36.00;;
5127;SDS011;2582;48.770;9.190;2022-12-18T00:21:18;54.37;;;35.33;;
5127;SDS011;2582;48.770;9.190;2022-12-18T00:23:45;49.03;;;31.00;;
5127;SDS011;2582;48.770;9.190;2022-12-18T00:26:16;54.43;;;35.00;;
5127;SDS011;2582;48.770;9.190;2022-12-18T00:28:43;61.13;;;37.13;;
5127;SDS011;2582;48.770;9.190;2022-12-18T00:31:13;54.70;;;35.77;;
5127;SDS011;2582;48.770;9.190;2022-12-18T00:33:40;50.23;;;33.67;;
5127;SDS011;2582;48.770;9.190;2022-12-18T00:36:10;60.43;;;36.60;;
5127;SDS011;2582;48.770;9.190;2022-12-18T00:38:38;55.80;;;35.60;;
5127;SDS011;2582;48.770;9.190;2022-12-18T00:41:04;49.33;;;33.63;;
5127;SDS011;2582;48.770;9.190;2022-12-18T00:43:30;53.20;;;32.00;;
5127;SDS011;2582;48.770;9.190;2022-12-18T00:45:59;50.80;;;33.80;;
5127;SDS011;2582;48.770;9.190;2022-12-18T00:48:24;54.70;;;33.57;;
5127;SDS011;2582;48.770;9.190;2022-12-18T00:50:50;59.70;;;37.40;;
5127;SDS011;2582;48.770;9.190;2022-12-18T00:53:16;54.83;;;36.03;;
5127;SDS011;2582;48.770;9.190;2022-12-18T00:55:42;52.20;;;35.27;;
5127;SDS011;2582;48.770;9.190;2022-12-18T00:58:09;51.23;;;36.37;;
5127;SDS011;2582;48.770;9.190;2022-12-18T01:00:35;54.33;;;36.33;;
5127;SDS011;2582;48.770;9.190;2022-12-18T01:03:01;55.77;;;34.13;;
5127;SDS011;2582;48.770;9.190;2022-12-18T01:05:27;55.47;;;36.43;;
5127;SDS011;2582;48.770;9.190;2022-12-18T01:07:52;51.23;;;34.63;;
5127;SDS011;2582;48.770;9.190;2022-12-18T01:10:18;49.00;;;33.30;;
5127;SDS011;2582;48.770;9.190;2022-12-18T01:12:44;53.90;;;35.07;;
5127;SDS011;2582;48.770;9.190;2022-12-18T01:15:10;54.63;;;34.90;;
5127;SDS011;2582;48.770;9.190;2022-12-18T01:17:37;52.57;;;37.33;;
5127;SDS011;2582;48.770;9.190;2022-12-18T01:20:02;52.37;;;34.27;;
5127;SDS011;2582;48.770;9.190;2022-12-18T01:22:29;57.90;;;36.57;;
5127;SDS011;2582;48.770;9.190;2022-12-18T01:24:54;43.20;;;31.47;;
5127;SDS011;2582;48.770;9.190;2022-12-18T01:27:20;44.50;;;29.00;;
5127;SDS011;2582;48.770;9.190;2022-12-18T01:29:45;51.70;;;32.77;;
5127;SDS011;2582;48.770;9.190;2022-12-18T01:32:11;49.07;;;31.80;;
5127;SDS011;2582;48.770;9.190;2022-12-18T01:34:37;51.00;;;35.10;;
5127;SDS011;2582;48.770;9.190;2022-12-18T01:37:04;54.53;;;31.83;;
5127;SDS011;2582;48.770;9.190;2022-12-18T01:39:30;53.70;;;33.37;;
5127;SDS011;2582;48.770;9.190;2022-12-18T01:41:57;52.40;;;33.77;;
5127;SDS011;2582;48.770;9.190;2022-12-18T01:47:26;49.70;;;34.63;;
5127;SDS011;2582;48.770;9.190;2022-12-18T01:49:59;48.13;;;30.17;;
5127;SDS011;2582;48.770;9.190;2022-12-18T01:52:47;48.80;;;31.30;;
5127;SDS011;2582;48.770;9.190;2022-12-18T01:55:22;53.53;;;31.80;;
5127;SDS011;2582;48.770;9.190;2022-12-18T01:57:54;54.43;;;34.37;;
5127;SDS011;2582;48.770;9.190;2022-12-18T02:00:22;57.70;;;35.67;;
5127;SDS011;2582;48.770;9.190;2022-12-18T02:02:49;45.93;;;30.60;;
5127;SDS011;2582;48.770;9.190;2022-12-18T02:05:16;50.07;;;32.37;;
5127;SDS011;2582;48.770;9.190;2022-12-18T02:08:12;49.10;;;32.10;;
5127;SDS011;2582;48.770;9.190;2022-12-18T02:10:48;53.33;;;32.70;;
5127;SDS011;2582;48.770;9.190;2022-12-18T02:13:41;45.20;;;31.43;;
5127;SDS011;2582;48.770;9.190;2022-12-18T02:19:00;50.10;;;33.10;;
5127;SDS011;2582;48.770;9.190;2022-12-18T02:25:10;48.47;;;34.70;;
5127;SDS011;2582;48.770;9.190;2022-12-18T02:27:38;51.57;;;33.93;;
5127;SDS011;2582;48.770;9.190;2022-12-18T02:30:06;56.83;;;34.53;;
5127;SDS011;2582;48.770;9.190;2022-12-18T02:32:43;49.13;;;31.50;;
5127;SDS011;2582;48.770;9.190;2022-12-18T02:35:13;53.43;;;34.37;;
5127;SDS011;2582;48.770;9.190;2022-12-18T02:37:42;51.70;;;34.70;;
5127;SDS011;2582;48.770;9.190;2022-12-18T02:40:09;52.33;;;34.97;;
5127;SDS011;2582;48.770;9.190;2022-12-18T02:42:37;51.13;;;33.60;;
5127;SDS011;2582;48.770;9.190;2022-12-18T02:45:02;45.70;;;31.80;;
5127;SDS011;2582;48.770;9.190;2022-12-18T02:47:29;58.30;;;36.77;;
5127;SDS011;2582;48.770;9.190;2022-12-18T02:52:41;46.90;;;30.73;;
5127;SDS011;2582;48.770;9.190;2022-12-18T02:55:33;45.60;;;31.70;;
5127;SDS011;2582;48.770;9.190;2022-12-18T02:58:30;49.87;;;32.17;;
5127;SDS011;2582;48.770;9.190;2022-12-18T03:01:09;47.60;;;32.20;;
5127;SDS011;2582;48.770;9.190;2022-12-18T03:03:59;48.83;;;32.83;;
5127;SDS011;2582;48.770;9.190;2022-12-18T03:06:30;46.13;;;28.57;;
5127;SDS011;2582;48.770;9.190;2022-12-18T03:09:00;41.23;;;28.00;;
5127;SDS011;2582;48.770;9.190;2022-12-18T03:11:31;47.47;;;27.03;;
5127;SDS011;2582;48.770;9.190;2022-12-18T03:14:17;43.33;;;26.37;;
5127;SDS011;2582;48.770;9.190;2022-12-18T03:16:46;42.77;;;26.67;;
5127;SDS011;2582;48.770;9.190;2022-12-18T03:19:18;41.07;;;25.67;;
5127;SDS011;2582;48.770;9.190;2022-12-18T03:21:47;49.20;;;28.60;;
5127;SDS011;2582;48.770;9.190;2022-12-18T03:24:17;43.23;;;27.70;;
5127;SDS011;2582;48.770;9.190;2022-12-18T03:26:45;48.70;;;28.00;;
5127;SDS011;2582;48.770;9.190;2022-12-18T03:29:16;42.03;;;26.50;;
5127;SDS011;2582;48.770;9.190;2022-12-18T03:31:47;42.67;;;28.67;;
5127;SDS011;2582;48.770;9.190;2022-12-18T03:34:22;42.10;;;26.83;;
5127;SDS011;2582;48.770;9.190;2022-12-18T03:36:51;44.07;;;26.20;;
5127;SDS011;2582;48.770;9.190;2022-12-18T03:39:17;36.37;;;24.43;;
5127;SDS011;2582;48.770;9.190;2022-12-18T03:41:44;41.80;;;27.23;;
5127;SDS011;2582;48.770;9.190;2022-12-18T03:55:42;45.07;;;26.13;;
5127;SDS011;2582;48.770;9.190;2022-12-18T03:58:09;43.20;;;28.10;;
5127;SDS011;2582;48.770;9.190;2022-12-18T04:00:41;44.50;;;28.93;;
5127;SDS011;2582;48.770;9.190;2022-12-18T04:03:07;49.93;;;30.00;;
5127;SDS011;2582;48.770;9.190;2022-12-18T04:05:34;44.50;;;28.27;;
5127;SDS011;2582;48.770;9.190;2022-12-18T04:08:02;48.27;;;30.00;;
5127;SDS011;2582;48.770;9.190;2022-12-18T04:10:28;50.67;;;28.33;;
5127;SDS011;2582;48.770;9.190;2022-12-18T04:12:57;47.93;;;29.10;;
5127;SDS011;2582;48.770;9.190;2022-12-18T04:15:23;49.70;;;29.97;;
5127;SDS011;2582;48.770;9.190;2022-12-18T04:17:49;37.67;;;27.40;;
5127;SDS011;2582;48.770;9.190;2022-12-18T04:20:15;43.07;;;28.27;;
5127;SDS011;2582;48.770;9.190;2022-12-18T04:22:42;40.43;;;26.67;;
5127;SDS011;2582;48.770;9.190;2022-12-18T04:25:07;44.13;;;27.53;;
5127;SDS011;2582;48.770;9.190;2022-12-18T04:27:37;42.80;;;27.60;;
5127;SDS011;2582;48.770;9.190;2022-12-18T04:30:03;38.63;;;25.67;;
5127;SDS011;2582;48.770;9.190;2022-12-18T04:32:29;44.77;;;27.00;;
5127;SDS011;2582;48.770;9.190;2022-12-18T04:34:55;45.93;;;28.40;;
5127;SDS011;2582;48.770;9.190;2022-12-18T04:37:21;48.97;;;28.17;;
5127;SDS011;2582;48.770;9.190;2022-12-18T04:39:46;45.40;;;27.40;;
5127;SDS011;2582;48.770;9.190;2022-12-18T04:42:12;38.63;;;26.30;;
5127;SDS011;2582;48.770;9.190;2022-12-18T04:44:37;46.30;;;28.10;;
5127;SDS011;2582;48.770;9.190;2022-12-18T04:47:03;42.37;;;28.90;;
5127;SDS011;2582;48.770;9.190;2022-12-18T04:49:29;39.93;;;25.67;;
5127;SDS011;2582;48.770;9.190;2022-12-18T04:51:54;42.00;;;28.00;;
5127;SDS011;2582;48.770;9.190;2022-12-18T04:54:20;42.93;;;27.23;;
5127;SDS011;2582;48.770;9.190;2022-12-18T04:56:45;44.33;;;27.00;;
5127;SDS011;2582;48.770;9.190;2022-12-18T04:59:11;46.73;;;28.47;;
5127;SDS011;2582;48.770;9.190;2022-12-18T05:01:37;42.70;;;27.97;;
5127;SDS011;2582;48.770;9.190;2022-12-18T05:04:02;46.73;;;28.37;;
5127;SDS011;2582;48.770;9.190;2022-12-18T05:06:28;40.90;;;26.47;;
5127;SDS011;2582;48.770;9.190;2022-12-18T05:08:54;46.33;;;28.20;;
5127;SDS011;2582;48.770;9.190;2022-12-18T05:11:19;45.10;;;25.67;;
5127;SDS011;2582;48.770;9.190;2022-12-18T05:13:45;44.93;;;27.90;;
5127;SDS011;2582;48.770;9.190;2022-12-18T05:16:14;41.47;;;27.60;;
5127;SDS011;2582;48.770;9.190;2022-12-18T05:18:40;43.33;;;30.13;;
5127;SDS011;2582;48.770;9.190;2022-12-18T05:21:05;39.70;;;26.17;;
5127;SDS011;2582;48.770;9.190;2022-12-18T05:23:34;45.70;;;27.57;;
5127;SDS011;2582;48.770;9.190;2022-12-18T05:26:01;46.30;;;27.60;;
5127;SDS011;2582;48.770;9.190;2022-12-18T05:28:31;43.00;;;25.00;;
5127;SDS011;2582;48.770;9.190;2022-12-18T05:30:58;41.90;;;28.17;;
5127;SDS011;2582;48.770;9.190;2022-12-18T05:33:25;45.67;;;30.17;;
5127;SDS011;2582;48.770;9.190;2022-12-18T05:35:53;41.80;;;26.53;;
5127;SDS011;2582;48.770;9.190;2022-12-18T05:38:21;44.20;;;28.83;;
5127;SDS011;2582;48.770;9.190;2022-12-18T05:40:48;45.13;;;29.13;;
5127;SDS011;2582;48.770;9.190;2022-12-18T05:43:14;40.23;;;26.13;;
5127;SDS011;2582;48.770;9.190;2022-12-18T05:45:40;46.87;;;29.60;;
5127;SDS011;2582;48.770;9.190;2022-12-18T05:48:06;38.73;;;28.10;;
5127;SDS011;2582;48.770;9.190;2022-12-18T05:50:36;45.63;;;28.13;;
5127;SDS011;2582;48.770;9.190;2022-12-18T05:53:03;40.57;;;26.67;;
5127;SDS011;2582;48.770;9.190;2022-12-18T05:55:32;38.97;;;26.67;;
5127;SDS011;2582;48.770;9.190;2022-12-18T05:58:02;40.67;;;25.97;;
5127;SDS011;2582;48.770;9.190;2022-12-18T06:00:28;42.87;;;26.37;;
5127;SDS011;2582;48.770;9.190;2022-12-18T06:02:55;40.80;;;26.53;;
5127;SDS011;2582;48.770;9.190;2022-12-18T06:05:20;38.80;;;27.60;;
5127;SDS011;2582;48.770;9.190;2022-12-18T06:07:46;46.40;;;27.87;;
5127;SDS011;2582;48.770;9.190;2022-12-18T06:10:12;47.23;;;27.50;;
5127;SDS011;2582;48.770;9.190;2022-12-18T06:12:37;46.50;;;30.57;;
5127;SDS011;2582;48.770;9.190;2022-12-18T06:15:03;44.73;;;28.33;;
5127;SDS011;2582;48.770;9.190;2022-12-18T06:17:29;44.03;;;26.90;;
5127;SDS011;2582;48.770;9.190;2022-12-18T06:19:55;40.73;;;25.60;;
5127;SDS011;2582;48.770;9.190;2022-12-18T06:22:21;42.37;;;25.90;;
5127;SDS011;2582;48.770;9.190;2022-12-18T06:24:47;39.20;;;26.23;;
5127;SDS011;2582;48.770;9.190;2022-12-18T06:27:12;40.40;;;25.93;;
5127;SDS011;2582;48.770;9.190;2022-12-18T06:29:39;43.63;;;26.20;;
5127;SDS011;2582;48.770;9.190;2022-12-18T06:32:04;44.73;;;24.93;;
5127;SDS011;2582;48.770;9.190;2022-12-18T06:34:30;32.60;;;22.90;;
5127;SDS011;2582;48.770;9.190;2022-12-18T06:36:55;37.00;;;23.97;;
5127;SDS011;2582;48.770;9.190;2022-12-18T06:39:21;42.80;;;26.47;;
5127;SDS011;2582;48.770;9.190;2022-12-18T06:41:46;42.50;;;25.77;;
5127;SDS011;2582;48.770;9.190;2022-12-18T06:44:12;44.40;;;26.97;;
5127;SDS011;2582;48.770;9.190;2022-12-18T06:46:37;35.13;;;24.47;;
5127;SDS011;2582;48.770;9.190;2022-12-18T06:49:03;33.93;;;23.87;;
5127;SDS011;2582;48.770;9.190;2022-12-18T06:51:29;39.87;;;26.77;;
5127;SDS011;2582;48.770;9.190;2022-12-18T06:53:55;44.73;;;26.37;;
5127;SDS011;2582;48.770;9.190;2022-12-18T06:56:20;41.80;;;29.27;;
5127;SDS011;2582;48.770;9.190;2022-12-18T06:58:46;42.57;;;29.40;;
5127;SDS011;2582;48.770;9.190;2022-12-18T07:01:12;41.30;;;30.27;;
5127;SDS011;2582;48.770;9.190;2022-12-18T07:03:39;46.70;;;28.47;;
5127;SDS011;2582;48.770;9.190;2022-12-18T07:06:05;39.67;;;25.70;;
5127;SDS011;2582;48.770;9.190;2022-12-18T07:08:31;38.93;;;26.33;;
5127;SDS011;2582;48.770;9.190;2022-12-18T07:10:58;44.33;;;25.93;;
5127;SDS011;2582;48.770;9.190;2022-12-18T07:13:24;40.43;;;26.57;;
5127;SDS011;2582;48.770;9.190;2022-12-18T07:15:49;37.00;;;24.80;;
5127;SDS011;2582;48.770;9.190;2022-12-18T07:18:15;39.67;;;24.33;;
5127;SDS011;2582;48.770;9.190;2022-12-18T07:20:40;44.00;;;25.83;;
5127;SDS011;2582;48.770;9.190;2022-12-18T07:23:06;40.73;;;27.40;;
5127;SDS011;2582;48.770;9.190;2022-12-18T07:25:35;40.83;;;28.83;;
5127;SDS011;2582;48.770;9.190;2022-12-18T07:28:01;45.93;;;27.23;;
5127;SDS011;2582;48.770;9.190;2022-12-18T07:30:27;44.33;;;30.07;;
5127;SDS011;2582;48.770;9.190;2022-12-18T07:32:53;39.40;;;28.93;;
5127;SDS011;2582;48.770;9.190;2022-12-18T07:35:18;41.20;;;28.70;;
5127;SDS011;2582;48.770;9.190;2022-12-18T07:37:44;37.67;;;25.10;;
5127;SDS011;2582;48.770;9.190;2022-12-18T07:40:10;32.67;;;23.80;;
5127;SDS011;2582;48.770;9.190;2022-12-18T07:42:36;34.20;;;24.27;;
5127;SDS011;2582;48.770;9.190;2022-12-18T07:45:02;41.70;;;24.80;;
5127;SDS011;2582;48.770;9.190;2022-12-18T07:47:28;53.87;;;32.37;;
5127;SDS011;2582;48.770;9.190;2022-12-18T07:49:54;46.90;;;28.10;;
5127;SDS011;2582;48.770;9.190;2022-12-18T07:52:19;35.67;;;23.87;;
5127;SDS011;2582;48.770;9.190;2022-12-18T07:54:45;36.33;;;23.63;;
5127;SDS011;2582;48.770;9.190;2022-12-18T07:57:13;34.93;;;22.97;;
5127;SDS011;2582;48.770;9.190;2022-12-18T07:59:39;37.73;;;24.10;;
5127;SDS011;2582;48.770;9.190;2022-12-18T08:02:04;36.40;;;24.50;;
5127;SDS011;2582;48.770;9.190;2022-12-18T08:04:30;36.17;;;24.40;;
5127;SDS011;2582;48.770;9.190;2022-12-18T08:06:56;33.03;;;24.57;;
5127;SDS011;2582;48.770;9.190;2022-12-18T08:09:21;41.80;;;25.93;;
5127;SDS011;2582;48.770;9.190;2022-12-18T08:11:47;38.67;;;25.63;;
5127;SDS011;2582;48.770;9.190;2022-12-18T08:14:12;33.73;;;26.10;;
5127;SDS011;2582;48.770;9.190;2022-12-18T08:16:39;33.43;;;24.50;;
5127;SDS011;2582;48.770;9.190;2022-12-18T08:19:05;38.17;;;25.90;;
5127;SDS011;2582;48.770;9.190;2022-12-18T08:21:31;34.70;;;24.30;;
5127;SDS011;2582;48.770;9.190;2022-12-18T08:23:57;36.43;;;22.50;;
5127;SDS011;2582;48.770;9.190;2022-12-18T08:26:25;45.63;;;30.57;;
5127;SDS011;2582;48.770;9.190;2022-12-18T08:28:53;36.00;;;24.03;;
5127;SDS011;2582;48.770;9.190;2022-12-18T08:31:20;34.00;;;23.47;;
5127;SDS011;2582;48.770;9.190;2022-12-18T08:33:47;35.80;;;25.50;;
5127;SDS011;2582;48.770;9.190;2022-12-18T08:36:14;35.47;;;22.90;;
5127;SDS011;2582;48.770;9.190;2022-12-18T08:38:39;32.60;;;23.17;;
5127;SDS011;2582;48.770;9.190;2022-12-18T08:41:06;35.67;;;23.57;;
5127;SDS011;2582;48.770;9.190;2022-12-18T08:43:35;35.60;;;22.20;;
5127;SDS011;2582;48.770;9.190;2022-12-18T08:46:20;39.80;;;28.10;;
5127;SDS011;2582;48.770;9.190;2022-12-18T08:48:47;37.83;;;26.27;;
5127;SDS011;2582;48.770;9.190;2022-12-18T08:51:18;35.23;;;24.77;;
5127;SDS011;2582;48.770;9.190;2022-12-18T08:53:44;39.10;;;25.60;;
5127;SDS011;2582;48.770;9.190;2022-12-18T08:56:11;54.17;;;34.83;;
5127;SDS011;2582;48.770;9.190;2022-12-18T08:58:37;49.83;;;33.17;;
5127;SDS011;2582;48.770;9.190;2022-12-18T09:01:03;42.37;;;27.10;;
5127;SDS011;2582;48.770;9.190;2022-12-18T09:03:31;44.47;;;27.17;;
5127;SDS011;2582;48.770;9.190;2022-12-18T09:05:57;38.83;;;25.27;;
5127;SDS011;2582;48.770;9.190;2022-12-18T09:08:23;38.93;;;25.37;;
5127;SDS011;2582;48.770;9.190;2022-12-18T09:10:49;36.40;;;23.60;;
5127;SDS011;2582;48.770;9.190;2022-12-18T09:13:15;35.90;;;24.40;;
5127;SDS011;2582;48.770;9.190;2022-12-18T09:15:45;30.50;;;21.43;;
5127;SDS011;2582;48.770;9.190;2022-12-18T09:18:13;33.13;;;22.07;;
5127;SDS011;2582;48.770;9.190;2022-12-18T09:20:39;35.50;;;25.17;;
5127;SDS011;2582;48.770;9.190;2022-12-18T09:23:05;42.33;;;28.73;;
5127;SDS011;2582;48.770;9.190;2022-12-18T09:25:31;42.67;;;28.40;;
5127;SDS011;2582;48.770;9.190;2022-12-18T09:27:58;43.10;;;28.10;;
5127;SDS011;2582;48.770;9.190;2022-12-18T09:30:25;44.20;;;29.73;;
5127;SDS011;2582;48.770;9.190;2022-12-18T09:32:54;35.73;;;25.30;;
5127;SDS011;2582;48.770;9.190;2022-12-18T09:35:20;41.13;;;28.37;;
5127;SDS011;2582;48.770;9.190;2022-12-18T09:37:46;43.13;;;30.77;;
5127;SDS011;2582;48.770;9.190;2022-12-18T09:40:18;41.80;;;29.83;;
5127;SDS011;2582;48.770;9.190;2022-12-18T09:42:48;45.27;;;28.90;;
5127;SDS011;2582;48.770;9.190;2022-12-18T09:45:26;39.17;;;28.57;;
5127;SDS011;2582;48.770;9.190;2022-12-18T09:47:53;45.87;;;30.57;;
5127;SDS011;2582;48.770;9.190;2022-12-18T09:50:30;46.03;;;31.63;;
5127;SDS011;2582;48.770;9.190;2022-12-18T09:53:02;45.53;;;28.30;;
5127;SDS011;2582;48.770;9.190;2022-12-18T09:55:33;45.73;;;30.60;;
5127;SDS011;2582;48.770;9.190;2022-12-18T09:58:04;42.70;;;30.70;;
5127;SDS011;2582;48.770;9.190;2022-12-18T10:00:38;41.20;;;29.00;;
5127;SDS011;2582;48.770;9.190;2022-12-18T10:03:08;45.90;;;34.27;;
5127;SDS011;2582;48.770;9.190;2022-12-18T10:21:10;42.37;;;28.03;;
5127;SDS011;2582;48.770;9.190;2022-12-18T10:26:52;39.90;;;24.90;;
5127;SDS011;2582;48.770;9.190;2022-12-18T10:29:21;41.60;;;25.73;;
5127;SDS011;2582;48.770;9.190;2022-12-18T10:31:47;40.30;;;26.67;;
5127;SDS011;2582;48.770;9.190;2022-12-18T10:34:13;39.90;;;24.37;;
5127;SDS011;2582;48.770;9.190;2022-12-18T10:36:38;36.67;;;23.60;;
5127;SDS011;2582;48.770;9.190;2022-12-18T10:39:14;39.20;;;24.63;;
5127;SDS011;2582;48.770;9.190;2022-12-18T10:41:44;39.67;;;26.13;;
5127;SDS011;2582;48.770;9.190;2022-12-18T10:46:55;37.10;;;23.23;;
5127;SDS011;2582;48.770;9.190;2022-12-18T10:49:30;38.70;;;24.57;;
5127;SDS011;2582;48.770;9.190;2022-12-18T10:54:53;37.77;;;23.90;;
5127;SDS011;2582;48.770;9.190;2022-12-18T10:59:52;37.60;;;23.20;;
5127;SDS011;2582;48.770;9.190;2022-12-18T11:04:53;38.40;;;23.17;;
5127;SDS011;2582;48.770;9.190;2022-12-18T11:07:19;35.67;;;23.90;;
5127;SDS011;2582;48.770;9.190;2022-12-18T11:09:45;31.43;;;22.90;;
5127;SDS011;2582;48.770;9.190;2022-12-18T11:12:25;32.33;;;21.90;;
5127;SDS011;2582;48.770;9.190;2022-12-18T11:14:54;32.67;;;21.87;;
5127;SDS011;2582;48.770;9.190;2022-12-18T11:17:22;34.30;;;23.30;;
5127;SDS011;2582;48.770;9.190;2022-12-18T11:19:57;35.30;;;23.47;;
5127;SDS011;2582;48.770;9.190;2022-12-18T11:22:25;31.40;;;22.70;;
5127;SDS011;2582;48.770;9.190;2022-12-18T11:24:54;34.30;;;25.00;;
5127;SDS011;2582;48.770;9.190;2022-12-18T11:27:25;32.70;;;23.13;;
5127;SDS011;2582;48.770;9.190;2022-12-18T11:29:53;32.90;;;22.07;;
5127;SDS011;2582;48.770;9.190;2022-12-18T11:32:47;34.83;;;24.67;;
5127;SDS011;2582;48.770;9.190;2022-12-18T11:35:20;31.67;;;22.90;;
5127;SDS011;2582;48.770;9.190;2022-12-18T11:38:10;31.97;;;23.03;;
5127;SDS011;2582;48.770;9.190;2022-12-18T11:41:01;35.30;;;24.50;;
5127;SDS011;2582;48.770;9.190;2022-12-18T11:43:38;29.97;;;21.20;;
5127;SDS011;2582;48.770;9.190;2022-12-18T11:46:10;32.27;;;21.60;;
5127;SDS011;2582;48.770;9.190;2022-12-18T11:48:49;32.30;;;22.77;;
5127;SDS011;2582;48.770;9.190;2022-12-18T11:51:36;32.47;;;22.23;;
5127;SDS011;2582;48.770;9.190;2022-12-18T11:54:13;28.70;;;20.07;;
5127;SDS011;2582;48.770;9.190;2022-12-18T11:56:46;34.40;;;24.10;;
5127;SDS011;2582;48.770;9.190;2022-12-18T12:01:53;29.93;;;20.80;;
5127;SDS011;2582;48.770;9.190;2022-12-18T12:07:21;29.95;;;23.70;;
5127;SDS011;2582;48.770;9.190;2022-12-18T12:23:37;35.10;;;23.50;;
5127;SDS011;2582;48.770;9.190;2022-12-18T12:26:18;36.93;;;23.23;;
5127;SDS011;2582;48.770;9.190;2022-12-18T12:34:18;32.13;;;21.93;;
5127;SDS011;2582;48.770;9.190;2022-12-18T12:37:07;34.57;;;23.70;;
5127;SDS011;2582;48.770;9.190;2022-12-18T12:39:46;37.40;;;23.43;;
5127;SDS011;2582;48.770;9.190;2022-12-18T12:42:35;33.53;;;23.13;;
5127;SDS011;2582;48.770;9.190;2022-12-18T12:45:36;33.33;;;21.93;;
5127;SDS011;2582;48.770;9.190;2022-12-18T12:51:11;32.17;;;22.27;;
5127;SDS011;2582;48.770;9.190;2022-12-18T12:53:41;32.83;;;21.43;;
5127;SDS011;2582;48.770;9.190;2022-12-18T12:56:07;36.60;;;23.37;;
5127;SDS011;2582;48.770;9.190;2022-12-18T12:58:38;36.30;;;22.97;;
5127;SDS011;2582;48.770;9.190;2022-12-18T13:09:29;32.13;;;21.90;;
5127;SDS011;2582;48.770;9.190;2022-12-18T13:12:03;33.03;;;20.77;;
5127;SDS011;2582;48.770;9.190;2022-12-18T13:14:53;35.47;;;23.13;;
5127;SDS011;2582;48.770;9.190;2022-12-18T13:17:36;34.30;;;22.37;;
5127;SDS011;2582;48.770;9.190;2022-12-18T13:22:34;35.53;;;24.10;;
5127;SDS011;2582;48.770;9.190;2022-12-18T13:25:00;32.93;;;20.90;;
5127;SDS011;2582;48.770;9.190;2022-12-18T13:43:43;40.53;;;26.00;;
5127;SDS011;2582;48.770;9.190;2022-12-18T13:51:44;37.20;;;24.40;;
5127;SDS011;2582;48.770;9.190;2022-12-18T13:54:18;38.93;;;26.87;;
5127;SDS011;2582;48.770;9.190;2022-12-18T13:56:57;38.10;;;26.33;;
5127;SDS011;2582;48.770;9.190;2022-12-18T13:59:23;36.20;;;25.87;;
5127;SDS011;2582;48.770;9.190;2022-12-18T14:02:00;39.40;;;25.93;;
5127;SDS011;2582;48.770;9.190;2022-12-18T14:04:38;35.17;;;24.73;;
5127;SDS011;2582;48.770;9.190;2022-12-18T14:09:31;44.50;;;29.27;;
5127;SDS011;2582;48.770;9.190;2022-12-18T14:12:00;44.10;;;30.47;;
5127;SDS011;2582;48.770;9.190;2022-12-18T14:14:47;38.60;;;27.17;;
5127;SDS011;2582;48.770;9.190;2022-12-18T14:17:14;43.10;;;27.97;;
5127;SDS011;2582;48.770;9.190;2022-12-18T14:19:41;45.47;;;26.57;;
5127;SDS011;2582;48.770;9.190;2022-12-18T14:22:22;43.23;;;27.63;;
5127;SDS011;2582;48.770;9.190;2022-12-18T14:25:14;42.83;;;27.73;;
5127;SDS011;2582;48.770;9.190;2022-12-18T14:30:28;40.53;;;26.30;;
5127;SDS011;2582;48.770;9.190;2022-12-18T14:33:02;39.20;;;26.67;;
5127;SDS011;2582;48.770;9.190;2022-12-18T14:35:27;45.10;;;27.77;;
5127;SDS011;2582;48.770;9.190;2022-12-18T14:37:53;40.93;;;27.93;;
5127;SDS011;2582;48.770;9.190;2022-12-18T14:40:32;38.00;;;25.90;;
5127;SDS011;2582;48.770;9.190;2022-12-18T14:42:57;35.50;;;25.90;;
5127;SDS011;2582;48.770;9.190;2022-12-18T14:45:33;43.30;;;28.70;;
5127;SDS011;2582;48.770;9.190;2022-12-18T14:48:05;42.33;;;26.37;;
5127;SDS011;2582;48.770;9.190;2022-12-18T14:50:32;41.37;;;26.97;;
5127;SDS011;2582;48.770;9.190;2022-12-18T14:52:58;40.17;;;26.17;;
5127;SDS011;2582;48.770;9.190;2022-12-18T14:55:23;42.63;;;28.40;;
5127;SDS011;2582;48.770;9.190;2022-12-18T14:57:50;37.83;;;26.23;;
5127;SDS011;2582;48.770;9.190;2022-12-18T15:00:18;40.43;;;26.10;;
5127;SDS011;2582;48.770;9.190;2022-12-18T15:02:52;42.83;;;29.43;;
5127;SDS011;2582;48.770;9.190;2022-12-18T15:05:21;41.30;;;26.90;;
5127;SDS011;2582;48.770;9.190;2022-12-18T15:07:55;44.03;;;26.70;;
5127;SDS011;2582;48.770;9.190;2022-12-18T15:10:24;44.17;;;27.77;;
5127;SDS011;2582;48.770;9.190;2022-12-18T15:18:03;44.40;;;28.93;;
5127;SDS011;2582;48.770;9.190;2022-12-18T15:20:32;48.97;;;31.97;;
5127;SDS011;2582;48.770;9.190;2022-12-18T15:23:12;47.10;;;29.43;;
5127;SDS011;2582;48.770;9.190;2022-12-18T15:25:47;56.10;;;30.50;;
5127;SDS011;2582;48.770;9.190;2022-12-18T15:28:34;59.40;;;36.40;;
5127;SDS011;2582;48.770;9.190;2022-12-18T15:31:06;63.53;;;36.87;;
5127;SDS011;2582;48.770;9.190;2022-12-18T15:36:19;54.60;;;33.93;;
5127;SDS011;2582;48.770;9.190;2022-12-18T15:38:48;55.20;;;36.20;;
5127;SDS011;2582;48.770;9.190;2022-12-18T15:41:18;48.33;;;31.30;;
5127;SDS011;2582;48.770;9.190;2022-12-18T15:43:46;49.00;;;32.17;;
5127;SDS011;2582;48.770;9.190;2022-12-18T15:46:20;49.97;;;32.70;;
5127;SDS011;2582;48.770;9.190;2022-12-18T15:48:48;51.50;;;32.47;;
5127;SDS011;2582;48.770;9.190;2022-12-18T15:51:23;52.70;;;32.83;;
5127;SDS011;2582;48.770;9.190;2022-12-18T15:53:52;45.87;;;31.00;;
5127;SDS011;2582;48.770;9.190;2022-12-18T15:56:20;49.33;;;31.17;;
5127;SDS011;2582;48.770;9.190;2022-12-18T15:59:08;46.67;;;31.80;;
5127;SDS011;2582;48.770;9.190;2022-12-18T16:01:37;60.40;;;38.90;;
5127;SDS011;2582;48.770;9.190;2022-12-18T16:04:02;55.60;;;34.90;;
5127;SDS011;2582;48.770;9.190;2022-12-18T16:06:28;54.53;;;34.20;;
5127;SDS011;2582;48.770;9.190;2022-12-18T16:08:53;47.40;;;33.13;;
5127;SDS011;2582;48.770;9.190;2022-12-18T16:13:44;47.97;;;31.97;;
5127;SDS011;2582;48.770;9.190;2022-12-18T16:16:10;52.93;;;33.57;;
5127;SDS011;2582;48.770;9.190;2022-12-18T16:18:35;49.07;;;31.53;;
5127;SDS011;2582;48.770;9.190;2022-12-18T16:21:01;53.87;;;35.47;;
5127;SDS011;2582;48.770;9.190;2022-12-18T16:23:28;55.13;;;33.80;;
5127;SDS011;2582;48.770;9.190;2022-12-18T16:25:53;53.37;;;35.30;;
5127;SDS011;2582;48.770;9.190;2022-12-18T16:28:19;67.00;;;37.70;;
5127;SDS011;2582;48.770;9.190;2022-12-18T16:30:44;55.73;;;34.77;;
5127;SDS011;2582;48.770;9.190;2022-12-18T16:33:10;59.17;;;36.33;;
5127;SDS011;2582;48.770;9.190;2022-12-18T16:35:36;50.80;;;34.90;;
5127;SDS011;2582;48.770;9.190;2022-12-18T16:38:02;54.73;;;35.03;;
5127;SDS011;2582;48.770;9.190;2022-12-18T16:40:27;47.50;;;33.10;;
5127;SDS011;2582;48.770;9.190;2022-12-18T16:42:56;53.93;;;33.87;;
5127;SDS011;2582;48.770;9.190;2022-12-18T16:45:21;52.57;;;36.03;;
5127;SDS011;2582;48.770;9.190;2022-12-18T16:47:47;51.63;;;32.77;;
5127;SDS011;2582;48.770;9.190;2022-12-18T16:50:13;55.83;;;35.47;;
5127;SDS011;2582;48.770;9.190;2022-12-18T16:52:38;58.23;;;36.90;;
5127;SDS011;2582;48.770;9.190;2022-12-18T16:55:04;56.77;;;36.03;;
5127;SDS011;2582;48.770;9.190;2022-12-18T16:57:30;58.67;;;36.23;;
5127;SDS011;2582;48.770;9.190;2022-12-18T16:59:56;50.90;;;33.10;;
5127;SDS011;2582;48.770;9.190;2022-12-18T17:02:22;53.57;;;35.73;;
5127;SDS011;2582;48.770;9.190;2022-12-18T17:04:51;47.60;;;30.47;;
5127;SDS011;2582;48.770;9.190;2022-12-18T17:07:18;53.57;;;34.53;;
5127;SDS011;2582;48.770;9.190;2022-12-18T17:09:44;49.60;;;30.33;;